createdAt,value
2022-12-15T00:02:40.688Z,20.13
2022-12-15T00:05:26.746Z,15.23
2022-12-15T00:08:12.651Z,15.60
2022-12-15T00:10:58.707Z,19.90
2022-12-15T00:13:44.761Z,19.83
2022-12-15T00:16:30.748Z,24.33
2022-12-15T00:19:18.327Z,18.60
2022-12-15T00:22:04.431Z,19.93
2022-12-15T00:24:50.553Z,18.57
2022-12-15T00:27:36.323Z,18.80
2022-12-15T00:30:22.062Z,15.80
2022-12-15T00:33:08.085Z,18.63
2022-12-15T00:35:55.991Z,18.17
2022-12-15T00:38:41.919Z,20.90
2022-12-15T00:41:10.433Z,19.27
2022-12-15T00:43:38.933Z,18.77
2022-12-15T00:46:25.379Z,13.57
2022-12-15T00:48:53.924Z,13.17
2022-12-15T00:51:22.732Z,13.47
2022-12-15T00:54:13.209Z,13.50
2022-12-15T00:57:02.505Z,16.57
2022-12-15T00:59:48.355Z,12.57
2022-12-15T01:02:34.403Z,14.67
2022-12-15T01:05:20.289Z,16.50
2022-12-15T01:08:07.382Z,12.93
2022-12-15T01:10:53.384Z,10.03
2022-12-15T01:13:39.140Z,13.07
2022-12-15T01:16:30.224Z,14.37
2022-12-15T01:19:16.757Z,13.17
2022-12-15T01:21:45.190Z,10.97
2022-12-15T01:24:14.942Z,15.67
2022-12-15T01:26:43.390Z,10.67
2022-12-15T01:29:11.750Z,12.40
2022-12-15T01:31:40.209Z,10.20
2022-12-15T01:34:08.617Z,9.40
2022-12-15T01:36:36.988Z,12.00
2022-12-15T01:39:05.458Z,10.93
2022-12-15T01:41:34.293Z,11.73
2022-12-15T01:44:16.142Z,10.73
2022-12-15T01:46:44.774Z,11.67
2022-12-15T01:49:16.300Z,10.00
2022-12-15T01:51:46.027Z,10.50
2022-12-15T01:54:16.922Z,9.57
2022-12-15T01:56:48.289Z,12.73
2022-12-15T01:59:19.567Z,11.53
2022-12-15T02:01:50.263Z,11.77
2022-12-15T02:04:19.846Z,9.07
2022-12-15T02:06:48.241Z,10.20
2022-12-15T02:09:17.140Z,9.33
2022-12-15T02:11:53.035Z,10.33
2022-12-15T02:14:24.427Z,10.27
2022-12-15T02:17:07.680Z,9.27
2022-12-15T02:19:49.913Z,7.33
2022-12-15T02:22:26.267Z,10.50
2022-12-15T02:25:07.728Z,10.83
2022-12-15T02:27:50.356Z,8.40
2022-12-15T02:30:30.785Z,10.87
2022-12-15T02:33:03.061Z,11.43
2022-12-15T02:35:47.227Z,13.53
2022-12-15T02:38:15.642Z,9.73
2022-12-15T02:40:44.175Z,9.33
2022-12-15T02:43:12.940Z,9.87
2022-12-15T02:45:48.324Z,10.33
2022-12-15T02:48:23.793Z,8.70
2022-12-15T02:51:02.553Z,11.37
2022-12-15T02:53:44.560Z,10.40
2022-12-15T02:56:17.785Z,12.53
2022-12-15T02:58:49.728Z,11.13
2022-12-15T03:01:22.181Z,13.10
2022-12-15T03:03:52.785Z,14.03
2022-12-15T03:06:21.679Z,14.80
2022-12-15T03:08:50.227Z,17.67
2022-12-15T03:11:18.626Z,17.07
2022-12-15T03:13:47.069Z,19.00
2022-12-15T03:16:19.746Z,18.57
2022-12-15T03:18:48.224Z,15.27
2022-12-15T03:21:16.782Z,18.90
2022-12-15T03:23:45.228Z,20.33
2022-12-15T03:26:13.719Z,22.00
2022-12-15T03:28:42.714Z,19.47
2022-12-15T03:31:11.103Z,20.73
2022-12-15T03:33:41.003Z,24.10
2022-12-15T03:36:09.951Z,22.83
2022-12-15T03:38:38.353Z,22.03
2022-12-15T03:41:06.816Z,17.80
2022-12-15T03:43:35.271Z,23.00
2022-12-15T03:46:03.715Z,22.23
2022-12-15T03:48:32.369Z,22.83
2022-12-15T03:51:02.151Z,21.17
2022-12-15T03:53:30.875Z,23.90
2022-12-15T03:55:59.734Z,23.60
2022-12-15T03:58:28.089Z,25.63
2022-12-15T04:00:57.129Z,23.20
2022-12-15T04:03:25.656Z,26.10
2022-12-15T04:05:54.046Z,29.37
2022-12-15T04:08:27.737Z,27.03
2022-12-15T04:10:56.164Z,24.10
2022-12-15T04:13:24.552Z,25.17
2022-12-15T04:15:52.957Z,23.87
2022-12-15T04:18:21.441Z,25.23
2022-12-15T04:20:50.407Z,24.93
2022-12-15T04:23:18.985Z,25.20
2022-12-15T04:26:06.478Z,27.47
2022-12-15T04:28:52.417Z,25.13
2022-12-15T04:31:39.732Z,25.10
2022-12-15T04:34:27.743Z,30.23
2022-12-15T04:37:13.650Z,35.00
2022-12-15T04:40:00.202Z,31.23
2022-12-15T04:42:47.910Z,33.07
2022-12-15T04:45:34.860Z,34.53
2022-12-15T04:48:20.966Z,32.03
2022-12-15T04:51:07.211Z,30.50
2022-12-15T04:53:53.062Z,29.53
2022-12-15T04:56:39.297Z,32.83
2022-12-15T04:59:26.835Z,27.63
2022-12-15T05:02:12.848Z,29.13
2022-12-15T05:04:58.908Z,30.30
2022-12-15T05:07:45.291Z,31.23
2022-12-15T05:10:31.664Z,33.97
2022-12-15T05:13:23.586Z,41.63
2022-12-15T05:16:10.978Z,33.07
2022-12-15T05:18:57.022Z,32.33
2022-12-15T05:21:43.000Z,33.17
2022-12-15T05:24:28.813Z,34.60
2022-12-15T05:27:14.655Z,35.47
2022-12-15T05:30:00.652Z,29.37
2022-12-15T05:32:33.154Z,30.53
2022-12-15T05:35:02.647Z,35.97
2022-12-15T05:37:31.009Z,34.77
2022-12-15T05:39:59.391Z,39.60
2022-12-15T05:42:27.841Z,36.83
2022-12-15T05:44:56.264Z,27.70
2022-12-15T05:47:24.615Z,32.53
2022-12-15T05:49:54.404Z,31.00
2022-12-15T05:52:22.789Z,27.37
2022-12-15T05:54:51.582Z,28.23
2022-12-15T05:57:20.022Z,33.33
2022-12-15T05:59:48.564Z,30.07
2022-12-15T06:02:17.051Z,30.30
2022-12-15T06:04:45.546Z,33.73
2022-12-15T06:07:15.401Z,34.70
2022-12-15T06:09:43.803Z,29.07
2022-12-15T06:12:12.224Z,31.87
2022-12-15T06:14:40.691Z,34.50
2022-12-15T06:17:09.116Z,29.27
2022-12-15T06:19:37.515Z,32.43
2022-12-15T06:22:05.929Z,33.47
2022-12-15T06:24:35.680Z,32.67
2022-12-15T06:27:04.065Z,31.30
2022-12-15T06:29:32.501Z,35.40
2022-12-15T06:32:00.917Z,31.63
2022-12-15T06:34:29.396Z,31.43
2022-12-15T06:36:57.796Z,48.27
2022-12-15T06:39:26.178Z,35.20
2022-12-15T06:41:56.012Z,32.43
2022-12-15T06:44:24.430Z,33.57
2022-12-15T06:46:52.883Z,35.97
2022-12-15T06:49:21.655Z,31.17
2022-12-15T06:51:50.918Z,31.33
2022-12-15T06:54:19.269Z,32.37
2022-12-15T06:56:49.801Z,28.67
2022-12-15T06:59:20.065Z,32.27
2022-12-15T07:01:48.606Z,53.10
2022-12-15T07:04:17.233Z,147.40
2022-12-15T07:06:45.748Z,37.47
2022-12-15T07:09:17.243Z,30.13
2022-12-15T07:11:49.260Z,29.23
2022-12-15T07:14:17.810Z,26.97
2022-12-15T07:16:47.616Z,34.83
2022-12-15T07:19:16.141Z,32.63
2022-12-15T07:21:45.114Z,29.03
2022-12-15T07:24:13.952Z,24.10
2022-12-15T07:26:42.669Z,24.67
2022-12-15T07:29:11.953Z,25.03
2022-12-15T07:31:40.620Z,22.33
2022-12-15T07:34:10.438Z,21.63
2022-12-15T07:36:38.832Z,25.47
2022-12-15T07:39:08.363Z,20.90
2022-12-15T07:41:36.797Z,19.33
2022-12-15T07:44:06.237Z,22.27
2022-12-15T07:46:34.709Z,28.03
2022-12-15T07:49:03.141Z,24.33
2022-12-15T07:51:32.942Z,20.50
2022-12-15T07:54:01.334Z,24.90
2022-12-15T07:56:32.214Z,23.40
2022-12-15T07:59:04.310Z,28.03
2022-12-15T08:01:32.949Z,20.70
2022-12-15T08:04:01.481Z,21.83
2022-12-15T08:06:30.079Z,27.27
2022-12-15T08:09:00.278Z,16.37
2022-12-15T08:11:28.675Z,18.57
2022-12-15T08:14:06.868Z,18.57
2022-12-15T08:16:36.798Z,22.77
2022-12-15T08:19:07.057Z,17.13
2022-12-15T08:21:35.762Z,22.13
2022-12-15T08:24:06.177Z,25.17
2022-12-15T08:26:34.580Z,17.67
2022-12-15T08:29:49.069Z,18.50
2022-12-15T08:31:54.060Z,20.97
2022-12-15T08:34:22.948Z,19.30
2022-12-15T08:36:51.415Z,17.53
2022-12-15T08:39:21.512Z,22.47
2022-12-15T08:41:49.889Z,19.43
2022-12-15T08:44:18.361Z,17.83
2022-12-15T08:46:46.773Z,17.10
2022-12-15T08:49:21.130Z,19.97
2022-12-15T08:51:50.635Z,18.20
2022-12-15T08:54:20.317Z,17.23
2022-12-15T08:56:50.175Z,15.00
2022-12-15T08:59:19.474Z,14.73
2022-12-15T09:01:48.249Z,21.67
2022-12-15T09:04:17.111Z,14.67
2022-12-15T09:06:50.354Z,20.73
2022-12-15T09:09:19.913Z,30.47
2022-12-15T09:11:49.760Z,26.87
2022-12-15T09:14:21.595Z,68.63
2022-12-15T09:16:54.145Z,38.57
2022-12-15T09:19:22.604Z,28.00
2022-12-15T09:21:51.038Z,22.53
2022-12-15T09:24:27.453Z,15.97
2022-12-15T09:27:03.125Z,23.53
2022-12-15T09:29:31.593Z,19.73
2022-12-15T09:32:00.808Z,21.87
2022-12-15T09:34:29.232Z,22.57
2022-12-15T09:36:57.962Z,36.17
2022-12-15T09:39:26.428Z,25.13
2022-12-15T09:41:56.160Z,22.33
2022-12-15T09:44:26.776Z,16.60
2022-12-15T09:46:59.932Z,36.77
2022-12-15T09:49:36.888Z,18.73
2022-12-15T09:52:11.004Z,23.50
2022-12-15T09:54:41.900Z,25.33
2022-12-15T09:57:13.771Z,24.10
2022-12-15T09:59:51.991Z,29.50
2022-12-15T10:02:28.122Z,26.53
2022-12-15T10:04:59.680Z,27.03
2022-12-15T10:07:30.942Z,28.03
2022-12-15T10:09:59.424Z,27.03
2022-12-15T10:12:30.926Z,42.17
2022-12-15T10:15:07.804Z,33.13
2022-12-15T10:17:43.010Z,32.03
2022-12-15T10:20:17.909Z,27.97
2022-12-15T10:22:50.506Z,30.50
2022-12-15T10:25:27.557Z,31.67
2022-12-15T10:28:09.752Z,29.80
2022-12-15T10:30:41.907Z,28.90
2022-12-15T10:33:15.407Z,35.50
2022-12-15T10:35:44.232Z,32.87
2022-12-15T10:38:19.990Z,33.77
2022-12-15T10:40:50.178Z,35.37
2022-12-15T10:43:26.406Z,39.17
2022-12-15T10:46:03.652Z,35.70
2022-12-15T10:48:32.302Z,35.20
2022-12-15T10:51:10.383Z,37.97
2022-12-15T10:53:41.836Z,38.30
2022-12-15T10:56:10.322Z,40.80
2022-12-15T10:58:47.724Z,39.93
2022-12-15T11:01:21.152Z,37.83
2022-12-15T11:03:52.985Z,35.90
2022-12-15T11:06:22.744Z,35.23
2022-12-15T11:08:52.246Z,36.70
2022-12-15T11:11:45.532Z,32.43
2022-12-15T11:14:15.387Z,42.03
2022-12-15T11:16:53.503Z,42.20
2022-12-15T11:19:29.988Z,42.33
2022-12-15T11:22:01.161Z,38.07
2022-12-15T11:24:33.809Z,37.10
2022-12-15T11:27:07.628Z,33.80
2022-12-15T11:29:42.267Z,36.47
2022-12-15T11:32:13.433Z,41.37
2022-12-15T11:34:44.384Z,40.73
2022-12-15T11:37:36.389Z,36.60
2022-12-15T11:40:15.378Z,45.73
2022-12-15T11:42:47.783Z,37.17
2022-12-15T11:45:20.460Z,37.07
2022-12-15T11:47:51.799Z,36.43
2022-12-15T11:50:27.229Z,43.47
2022-12-15T11:53:02.742Z,30.70
2022-12-15T11:55:41.296Z,28.83
2022-12-15T11:58:24.660Z,36.40
2022-12-15T12:00:57.459Z,40.60
2022-12-15T12:03:31.147Z,37.57
2022-12-15T12:06:03.663Z,42.47
2022-12-15T12:08:38.795Z,42.50
2022-12-15T12:11:12.242Z,38.53
2022-12-15T12:13:46.621Z,44.87
2022-12-15T12:16:27.359Z,42.80
2022-12-15T12:19:01.113Z,40.87
2022-12-15T12:21:32.530Z,41.53
2022-12-15T12:24:03.654Z,39.70
2022-12-15T12:26:34.485Z,44.77
2022-12-15T12:29:06.167Z,44.97
2022-12-15T12:31:39.113Z,49.83
2022-12-15T12:34:13.532Z,44.37
2022-12-15T12:36:42.477Z,42.10
2022-12-15T12:39:18.206Z,45.37
2022-12-15T12:41:48.533Z,71.23
2022-12-15T12:44:22.770Z,48.33
2022-12-15T12:46:53.070Z,47.17
2022-12-15T12:49:27.006Z,42.00
2022-12-15T12:51:56.889Z,43.80
2022-12-15T12:54:46.183Z,49.87
2022-12-15T12:57:34.840Z,46.13
2022-12-15T13:00:04.093Z,47.10
2022-12-15T13:02:43.279Z,72.50
2022-12-15T13:05:25.877Z,49.47
2022-12-15T13:07:55.949Z,49.17
2022-12-15T13:10:25.304Z,44.10
2022-12-15T13:12:54.528Z,46.60
2022-12-15T13:15:33.077Z,42.00
2022-12-15T13:18:03.167Z,47.07
2022-12-15T13:20:34.080Z,45.70
2022-12-15T13:23:20.991Z,42.23
2022-12-15T13:26:03.472Z,42.17
2022-12-15T13:28:42.718Z,40.10
2022-12-15T13:31:34.278Z,38.27
2022-12-15T13:34:14.355Z,46.17
2022-12-15T13:36:54.463Z,44.47
2022-12-15T13:39:47.378Z,47.53
2022-12-15T13:42:38.422Z,45.00
2022-12-15T13:45:40.762Z,42.10
2022-12-15T13:48:17.591Z,45.93
2022-12-15T13:50:51.327Z,41.37
2022-12-15T13:53:22.965Z,49.10
2022-12-15T13:56:05.877Z,44.40
2022-12-15T13:58:40.391Z,43.83
2022-12-15T14:01:20.427Z,53.97
2022-12-15T14:04:01.923Z,48.83
2022-12-15T14:06:33.242Z,56.00
2022-12-15T14:09:03.208Z,55.03
2022-12-15T14:12:02.032Z,51.17
2022-12-15T14:14:24.405Z,51.33
2022-12-15T14:16:58.372Z,40.57
2022-12-15T14:19:26.940Z,47.90
2022-12-15T14:21:56.269Z,58.37
2022-12-15T14:24:39.637Z,64.00
2022-12-15T14:27:08.796Z,56.30
2022-12-15T14:29:37.381Z,54.87
2022-12-15T14:32:06.470Z,57.40
2022-12-15T14:34:37.132Z,57.87
2022-12-15T14:37:08.585Z,54.20
2022-12-15T14:39:40.000Z,89.63
2022-12-15T14:42:09.100Z,153.17
2022-12-15T14:44:39.445Z,97.40
2022-12-15T14:47:09.706Z,48.43
2022-12-15T14:49:40.781Z,51.20
2022-12-15T14:52:16.136Z,46.70
2022-12-15T14:54:53.657Z,44.33
2022-12-15T14:57:28.093Z,44.80
2022-12-15T14:59:56.661Z,53.73
2022-12-15T15:02:27.327Z,52.13
2022-12-15T15:04:57.806Z,47.47
2022-12-15T15:07:26.497Z,48.00
2022-12-15T15:09:56.414Z,52.77
2022-12-15T15:12:25.572Z,45.97
2022-12-15T15:14:54.947Z,72.73
2022-12-15T15:17:25.364Z,47.73
2022-12-15T15:19:55.177Z,46.23
2022-12-15T15:22:36.091Z,61.00
2022-12-15T15:25:26.191Z,51.10
2022-12-15T15:27:54.589Z,57.07
2022-12-15T15:30:23.581Z,95.63
2022-12-15T15:32:53.085Z,72.67
2022-12-15T15:35:21.620Z,79.47
2022-12-15T15:37:50.099Z,72.13
2022-12-15T15:40:19.947Z,112.30
2022-12-15T15:42:49.103Z,63.20
2022-12-15T15:45:17.689Z,59.27
2022-12-15T15:47:48.127Z,55.80
2022-12-15T15:50:17.863Z,59.87
2022-12-15T15:52:46.369Z,53.77
2022-12-15T15:55:15.987Z,42.33
2022-12-15T15:57:45.751Z,46.33
2022-12-15T16:00:19.301Z,52.63
2022-12-15T16:02:47.871Z,48.90
2022-12-15T16:05:16.842Z,43.40
2022-12-15T16:07:46.595Z,40.07
2022-12-15T16:10:16.181Z,34.13
2022-12-15T16:12:47.389Z,39.27
2022-12-15T16:15:17.080Z,44.57
2022-12-15T16:17:45.848Z,40.87
2022-12-15T16:20:15.006Z,39.30
2022-12-15T16:22:43.926Z,37.47
2022-12-15T16:25:15.520Z,41.03
2022-12-15T16:27:43.911Z,43.63
2022-12-15T16:30:24.515Z,48.80
2022-12-15T16:32:53.348Z,42.57
2022-12-15T16:35:25.783Z,56.67
2022-12-15T16:37:54.487Z,130.97
2022-12-15T16:40:24.119Z,71.50
2022-12-15T16:42:56.693Z,77.30
2022-12-15T16:45:27.237Z,104.07
2022-12-15T16:47:56.715Z,45.97
2022-12-15T16:50:27.436Z,39.93
2022-12-15T16:52:56.220Z,39.47
2022-12-15T16:55:25.938Z,40.97
2022-12-15T16:57:55.826Z,35.27
2022-12-15T17:00:26.953Z,38.17
2022-12-15T17:02:55.482Z,43.70
2022-12-15T17:05:24.161Z,46.37
2022-12-15T17:07:54.318Z,38.40
2022-12-15T17:10:24.033Z,35.57
2022-12-15T17:12:53.408Z,32.50
2022-12-15T17:15:23.014Z,42.40
2022-12-15T17:17:53.125Z,39.90
2022-12-15T17:20:29.373Z,35.90
2022-12-15T17:23:00.672Z,33.73
2022-12-15T17:26:09.395Z,32.87
2022-12-15T17:28:22.325Z,32.30
2022-12-15T17:30:51.529Z,34.80
2022-12-15T17:33:22.567Z,31.40
2022-12-15T17:35:52.363Z,27.63
2022-12-15T17:38:22.222Z,27.10
2022-12-15T17:40:51.721Z,26.90
2022-12-15T17:43:21.100Z,28.27
2022-12-15T17:45:50.876Z,27.23
2022-12-15T17:48:21.679Z,22.23
2022-12-15T17:50:52.508Z,30.03
2022-12-15T17:53:23.502Z,36.63
2022-12-15T17:55:52.558Z,40.47
2022-12-15T17:58:21.873Z,39.20
2022-12-15T18:00:51.839Z,35.87
2022-12-15T18:03:22.327Z,42.80
2022-12-15T18:05:52.243Z,60.30
2022-12-15T18:08:21.690Z,51.77
2022-12-15T18:10:51.718Z,50.27
2022-12-15T18:13:21.797Z,51.53
2022-12-15T18:15:50.466Z,45.50
2022-12-15T18:18:19.477Z,38.93
2022-12-15T18:20:49.619Z,39.07
2022-12-15T18:23:18.795Z,37.33
2022-12-15T18:25:47.203Z,54.40
2022-12-15T18:28:21.019Z,56.83
2022-12-15T18:30:49.732Z,30.07
2022-12-15T18:33:18.108Z,25.60
2022-12-15T18:35:47.314Z,25.90
2022-12-15T18:38:18.313Z,29.93
2022-12-15T18:40:47.698Z,27.47
2022-12-15T18:43:17.446Z,25.17
2022-12-15T18:45:45.902Z,28.03
2022-12-15T18:48:17.090Z,26.80
2022-12-15T18:50:45.768Z,25.70
2022-12-15T18:53:19.326Z,31.17
2022-12-15T18:55:48.519Z,27.80
2022-12-15T18:58:22.494Z,24.53
2022-12-15T19:00:51.108Z,57.10
2022-12-15T19:03:19.798Z,39.53
2022-12-15T19:05:48.549Z,31.90
2022-12-15T19:08:20.219Z,29.67
2022-12-15T19:10:51.455Z,27.60
2022-12-15T19:13:21.161Z,29.07
2022-12-15T19:15:49.607Z,31.50
2022-12-15T19:18:35.692Z,28.83
2022-12-15T19:21:30.761Z,34.73
2022-12-15T19:24:00.562Z,32.30
2022-12-15T19:26:29.019Z,27.33
2022-12-15T19:28:57.823Z,26.00
2022-12-15T19:31:26.257Z,28.73
2022-12-15T19:33:55.213Z,32.53
2022-12-15T19:36:24.648Z,33.50
2022-12-15T19:38:56.099Z,29.43
2022-12-15T19:41:25.932Z,31.17
2022-12-15T19:43:54.325Z,32.77
2022-12-15T19:46:23.900Z,26.47
2022-12-15T19:48:52.362Z,30.67
2022-12-15T19:51:23.113Z,25.37
2022-12-15T19:53:51.849Z,26.63
2022-12-15T19:56:21.802Z,27.20
2022-12-15T19:58:51.618Z,26.93
2022-12-15T20:01:21.627Z,25.27
2022-12-15T20:03:50.786Z,24.37
2022-12-15T20:06:20.539Z,23.30
2022-12-15T20:08:50.664Z,24.90
2022-12-15T20:11:20.387Z,24.87
2022-12-15T20:13:49.094Z,30.70
2022-12-15T20:16:19.241Z,24.77
2022-12-15T20:18:48.059Z,26.83
2022-12-15T20:21:22.068Z,29.20
2022-12-15T20:23:52.421Z,28.83
2022-12-15T20:26:21.477Z,30.70
2022-12-15T20:28:50.026Z,30.13
2022-12-15T20:31:20.725Z,25.57
2022-12-15T20:33:49.704Z,27.67
2022-12-15T20:36:19.928Z,24.37
2022-12-15T20:38:49.228Z,24.77
2022-12-15T20:41:18.902Z,23.60
2022-12-15T20:43:47.764Z,20.47
2022-12-15T20:46:17.899Z,18.47
2022-12-15T20:48:48.382Z,18.60
2022-12-15T20:51:24.201Z,15.30
2022-12-15T20:53:52.952Z,21.37
2022-12-15T20:56:24.304Z,15.90
2022-12-15T20:58:52.841Z,16.00
2022-12-15T21:01:22.451Z,12.83
2022-12-15T21:03:53.309Z,11.07
2022-12-15T21:06:21.867Z,12.10
2022-12-15T21:08:50.599Z,9.23
2022-12-15T21:11:20.741Z,13.43
2022-12-15T21:13:50.041Z,7.67
2022-12-15T21:16:19.672Z,5.50
2022-12-15T21:21:39.077Z,4.53
2022-12-15T21:24:14.617Z,4.70
2022-12-15T21:26:43.012Z,4.63
2022-12-15T21:29:13.598Z,6.80
2022-12-15T21:31:42.366Z,4.50
2022-12-15T21:34:11.060Z,4.43
2022-12-15T21:36:42.017Z,4.97
2022-12-15T21:39:11.748Z,5.97
2022-12-15T21:41:41.760Z,4.97
2022-12-15T21:44:13.107Z,3.57
2022-12-15T21:46:41.563Z,4.47
2022-12-15T21:49:17.475Z,4.23
2022-12-15T21:51:48.629Z,3.90
2022-12-15T21:54:19.301Z,3.87
2022-12-15T21:56:48.512Z,3.07
2022-12-15T21:59:17.822Z,4.23
2022-12-15T22:01:46.264Z,5.33
2022-12-15T22:04:18.695Z,4.43
2022-12-15T22:06:50.890Z,3.20
2022-12-15T22:09:19.588Z,3.43
2022-12-15T22:11:49.644Z,6.10
2022-12-15T22:14:21.715Z,3.30
2022-12-15T22:16:50.162Z,3.00
2022-12-15T22:19:18.696Z,3.30
2022-12-15T22:21:48.456Z,3.40
2022-12-15T22:24:17.067Z,3.17
2022-12-15T22:26:45.913Z,2.93
2022-12-15T22:29:15.633Z,3.03
2022-12-15T22:31:44.071Z,2.60
2022-12-15T22:34:16.261Z,3.63
2022-12-15T22:36:44.834Z,3.80
2022-12-15T22:39:15.210Z,3.80
2022-12-15T22:41:44.628Z,2.50
2022-12-15T22:44:17.389Z,2.30
2022-12-15T22:46:45.900Z,3.07
2022-12-15T22:49:15.864Z,3.53
2022-12-15T22:51:44.254Z,3.70
2022-12-15T22:54:21.762Z,2.87
2022-12-15T22:56:52.588Z,3.90
2022-12-15T22:59:22.833Z,2.60
2022-12-15T23:01:51.316Z,3.67
2022-12-15T23:04:20.141Z,4.67
2022-12-15T23:06:48.660Z,3.03
2022-12-15T23:09:17.041Z,3.10
2022-12-15T23:11:45.900Z,4.33
2022-12-15T23:14:15.581Z,4.37
2022-12-15T23:16:43.224Z,2.70
2022-12-15T23:19:23.629Z,5.43
2022-12-15T23:21:52.311Z,3.00
2022-12-15T23:24:20.730Z,3.57
2022-12-15T23:26:50.508Z,2.90
2022-12-15T23:29:19.061Z,3.03
2022-12-15T23:31:47.586Z,2.60
2022-12-15T23:34:16.035Z,3.20
2022-12-15T23:36:44.454Z,5.87
2022-12-15T23:39:12.833Z,5.67
2022-12-15T23:41:41.695Z,6.00
2022-12-15T23:44:12.326Z,6.23
2022-12-15T23:46:40.818Z,4.90
2022-12-15T23:49:09.776Z,5.27
2022-12-15T23:51:38.183Z,3.63
2022-12-15T23:54:06.589Z,2.83
2022-12-15T23:56:35.077Z,3.47
2022-12-15T23:59:03.487Z,2.40
